createdAt,value
2022-08-25T00:01:47.325Z,99193.19
2022-08-25T00:04:53.789Z,99191.75
2022-08-25T00:07:57.583Z,99195.75
2022-08-25T00:11:03.249Z,99186.81
2022-08-25T00:14:12.069Z,99187.69
2022-08-25T00:17:15.393Z,99192.22
2022-08-25T00:20:18.854Z,99206.94
2022-08-25T00:23:22.181Z,99214.38
2022-08-25T00:26:27.637Z,99212.88
2022-08-25T00:29:33.490Z,99214.41
2022-08-25T00:32:36.764Z,99199.78
2022-08-25T00:35:42.368Z,99194.31
2022-08-25T00:38:47.953Z,99192.28
2022-08-25T00:41:53.413Z,99188.22
2022-08-25T00:44:58.415Z,99188.28
2022-08-25T00:48:04.825Z,99188.03
2022-08-25T00:51:10.297Z,99176.38
2022-08-25T00:54:18.815Z,99168.06
2022-08-25T00:57:34.733Z,99167.63
2022-08-25T01:00:43.340Z,99153.91
2022-08-25T01:03:46.915Z,99155.53
2022-08-25T01:06:50.742Z,99142.91
2022-08-25T01:09:55.631Z,99142.94
2022-08-25T01:13:04.107Z,99152.56
2022-08-25T01:16:09.534Z,99140.28
2022-08-25T01:19:15.744Z,99149.16
2022-08-25T01:22:20.988Z,99145.78
2022-08-25T01:25:36.538Z,99152.75
2022-08-25T01:29:01.883Z,99150.16
2022-08-25T01:32:08.386Z,99151.16
2022-08-25T01:35:11.809Z,99145.94
2022-08-25T01:38:17.000Z,99149.41
2022-08-25T01:41:27.653Z,99159.34
2022-08-25T01:44:31.637Z,99162.41
2022-08-25T01:47:35.383Z,99156.50
2022-08-25T01:50:39.297Z,99158.75
2022-08-25T01:53:44.750Z,99145.41
2022-08-25T01:56:48.132Z,99155.41
2022-08-25T01:59:51.673Z,99147.72
2022-08-25T02:02:55.650Z,99146.22
2022-08-25T02:06:01.391Z,99136.53
2022-08-25T02:09:12.195Z,99136.91
2022-08-25T02:12:15.583Z,99126.75
2022-08-25T02:15:18.918Z,99119.06
2022-08-25T02:18:22.565Z,99116.78
2022-08-25T02:21:26.066Z,99111.25
2022-08-25T02:24:30.820Z,99121.16
2022-08-25T02:27:34.325Z,99114.34
2022-08-25T02:30:38.876Z,99107.94
2022-08-25T02:33:42.301Z,99104.94
2022-08-25T02:36:45.748Z,99104.75
2022-08-25T02:39:50.513Z,99109.06
2022-08-25T02:42:53.857Z,99103.06
2022-08-25T02:45:57.544Z,99105.16
2022-08-25T02:49:01.092Z,99099.56
2022-08-25T02:52:05.415Z,99087.59
2022-08-25T02:55:14.298Z,99084.34
2022-08-25T02:58:17.742Z,99074.09
2022-08-25T03:01:28.362Z,99076.63
2022-08-25T03:04:32.386Z,99078.81
2022-08-25T03:07:36.436Z,99078.81
2022-08-25T03:10:41.520Z,99073.03
2022-08-25T03:13:45.212Z,99067.38
2022-08-25T03:16:48.659Z,99077.47
2022-08-25T03:19:52.611Z,99068.25
2022-08-25T03:22:55.993Z,99072.81
2022-08-25T03:26:18.027Z,99072.00
2022-08-25T03:29:21.841Z,99074.22
2022-08-25T03:32:25.088Z,99077.97
2022-08-25T03:35:28.520Z,99083.94
2022-08-25T03:38:34.408Z,99094.03
2022-08-25T03:41:39.176Z,99097.19
2022-08-25T03:44:42.518Z,99098.09
2022-08-25T03:47:48.699Z,99097.19
2022-08-25T03:50:54.924Z,99095.88
2022-08-25T03:53:59.109Z,99100.78
2022-08-25T03:57:04.175Z,99095.16
2022-08-25T04:00:09.503Z,99091.28
2022-08-25T04:03:15.847Z,99097.75
2022-08-25T04:06:20.146Z,99100.34
2022-08-25T04:09:23.653Z,99101.34
2022-08-25T04:12:28.451Z,99109.81
2022-08-25T04:15:32.519Z,99108.25
2022-08-25T04:18:36.090Z,99103.31
2022-08-25T04:21:40.833Z,99110.00
2022-08-25T04:24:44.190Z,99107.94
2022-08-25T04:27:48.918Z,99101.69
2022-08-25T04:30:52.377Z,99098.81
2022-08-25T04:33:57.568Z,99098.81
2022-08-25T04:37:03.027Z,99098.31
2022-08-25T04:40:07.298Z,99100.19
2022-08-25T04:43:12.095Z,99093.63
2022-08-25T04:46:20.598Z,99091.13
2022-08-25T04:49:24.197Z,99101.09
2022-08-25T04:52:27.541Z,99094.13
2022-08-25T04:55:30.813Z,99096.13
2022-08-25T04:58:35.847Z,99083.28
2022-08-25T05:01:40.701Z,99083.41
2022-08-25T05:04:44.156Z,99083.88
2022-08-25T05:07:47.831Z,99078.03
2022-08-25T05:10:54.541Z,99078.47
2022-08-25T05:14:03.109Z,99075.03
2022-08-25T05:17:06.981Z,99077.41
2022-08-25T05:20:11.245Z,99078.75
2022-08-25T05:23:14.569Z,99083.72
2022-08-25T05:26:21.291Z,99086.41
2022-08-25T05:29:27.409Z,99087.09
2022-08-25T05:32:30.736Z,99081.00
2022-08-25T05:35:34.164Z,99088.06
2022-08-25T05:38:38.318Z,99085.84
2022-08-25T05:41:42.194Z,99084.56
2022-08-25T05:44:47.024Z,99080.25
2022-08-25T05:47:51.104Z,99085.09
2022-08-25T05:50:55.679Z,99082.47
2022-08-25T05:53:58.976Z,99080.09
2022-08-25T05:57:02.465Z,99076.09
2022-08-25T06:00:09.432Z,99074.34
2022-08-25T06:03:15.915Z,99064.09
2022-08-25T06:06:19.391Z,99066.25
2022-08-25T06:09:22.995Z,99064.91
2022-08-25T06:12:26.345Z,99068.16
2022-08-25T06:15:31.954Z,99064.81
2022-08-25T06:18:35.373Z,99050.50
2022-08-25T06:21:40.699Z,99053.41
2022-08-25T06:24:44.159Z,99060.78
2022-08-25T06:27:47.753Z,99057.50
2022-08-25T06:30:52.478Z,99044.06
2022-08-25T06:33:55.975Z,99046.78
2022-08-25T06:36:59.425Z,99053.00
2022-08-25T06:40:02.890Z,99058.81
2022-08-25T06:43:08.993Z,99052.97
2022-08-25T06:46:15.621Z,99048.41
2022-08-25T06:49:19.119Z,99044.72
2022-08-25T06:52:22.435Z,99053.00
2022-08-25T06:55:34.825Z,99039.31
2022-08-25T06:58:38.879Z,99043.38
2022-08-25T07:01:43.787Z,99046.28
2022-08-25T07:04:47.426Z,99047.78
2022-08-25T07:07:52.118Z,99046.78
2022-08-25T07:10:55.791Z,99042.41
2022-08-25T07:13:59.137Z,99038.72
2022-08-25T07:17:11.063Z,99022.97
2022-08-25T07:20:16.302Z,99025.91
2022-08-25T07:23:20.015Z,99031.31
2022-08-25T07:26:37.375Z,99032.50
2022-08-25T07:29:42.620Z,99027.84
2022-08-25T07:32:47.557Z,99030.34
2022-08-25T07:35:57.701Z,99035.06
2022-08-25T07:39:04.656Z,99038.13
2022-08-25T07:42:12.225Z,99041.38
2022-08-25T07:45:20.558Z,99029.50
2022-08-25T07:48:25.851Z,99033.72
2022-08-25T07:51:29.333Z,99026.19
2022-08-25T07:54:34.480Z,99032.94
2022-08-25T07:57:40.859Z,99034.97
2022-08-25T08:00:44.598Z,99028.25
2022-08-25T08:03:51.628Z,99036.44
2022-08-25T08:06:55.099Z,99034.81
2022-08-25T08:10:29.741Z,99039.94
2022-08-25T08:13:23.858Z,99037.56
2022-08-25T08:16:29.817Z,99046.00
2022-08-25T08:19:34.859Z,99036.09
2022-08-25T08:22:39.634Z,99036.81
2022-08-25T08:25:43.215Z,99037.69
2022-08-25T08:28:52.084Z,99040.59
2022-08-25T08:31:55.730Z,99041.16
2022-08-25T08:35:01.694Z,99037.38
2022-08-25T08:38:10.268Z,99038.41
2022-08-25T08:42:12.052Z,99035.59
2022-08-25T08:45:28.012Z,99029.63
2022-08-25T08:48:52.694Z,99033.91
2022-08-25T08:52:02.754Z,99025.22
2022-08-25T08:55:18.201Z,99031.09
2022-08-25T08:58:26.418Z,99041.75
2022-08-25T09:01:34.459Z,99037.94
2022-08-25T09:04:43.817Z,99034.72
2022-08-25T09:07:56.061Z,99039.97
2022-08-25T09:11:04.872Z,99031.44
2022-08-25T09:14:30.665Z,99035.75
2022-08-25T09:17:54.311Z,99027.44
2022-08-25T09:21:10.726Z,99025.84
2022-08-25T09:24:29.659Z,99030.63
2022-08-25T09:27:41.244Z,99025.38
2022-08-25T09:30:52.539Z,99027.34
2022-08-25T09:33:58.952Z,99012.38
2022-08-25T09:37:03.443Z,99017.03
2022-08-25T09:40:11.803Z,99011.25
2022-08-25T09:43:23.531Z,99001.13
2022-08-25T09:46:28.954Z,99000.81
2022-08-25T09:49:36.389Z,98996.38
2022-08-25T09:52:41.802Z,98994.06
2022-08-25T09:55:53.578Z,98994.66
2022-08-25T09:59:34.439Z,98977.34
2022-08-25T10:02:38.872Z,98981.69
2022-08-25T10:06:00.477Z,98977.41
2022-08-25T10:09:07.591Z,98969.22
2022-08-25T10:12:22.330Z,98966.31
2022-08-25T10:15:34.638Z,98965.78
2022-08-25T10:18:38.503Z,98963.38
2022-08-25T10:21:44.955Z,98954.28
2022-08-25T10:24:50.779Z,98956.22
2022-08-25T10:28:13.612Z,98961.28
2022-08-25T10:31:25.430Z,98957.09
2022-08-25T10:34:44.651Z,98948.72
2022-08-25T10:38:04.566Z,98943.91
2022-08-25T10:41:21.089Z,98947.56
2022-08-25T10:44:58.612Z,98938.06
2022-08-25T10:48:23.742Z,98943.81
2022-08-25T10:51:40.252Z,98922.53
2022-08-25T10:54:50.712Z,98930.75
2022-08-25T10:58:01.684Z,98937.44
2022-08-25T11:01:12.790Z,98932.44
2022-08-25T11:04:21.426Z,98923.31
2022-08-25T11:07:33.790Z,98922.31
2022-08-25T11:10:45.823Z,98933.34
2022-08-25T11:13:56.478Z,98925.97
2022-08-25T11:17:07.612Z,98925.75
2022-08-25T11:20:26.646Z,98923.69
2022-08-25T11:23:38.489Z,98924.06
2022-08-25T11:26:48.411Z,98924.09
2022-08-25T11:30:01.908Z,98913.28
2022-08-25T11:33:07.417Z,98910.72
2022-08-25T11:36:20.925Z,98903.31
2022-08-25T11:39:38.687Z,98911.69
2022-08-25T11:42:58.081Z,98903.28
2022-08-25T11:46:19.214Z,98898.44
2022-08-25T11:49:46.732Z,98906.38
2022-08-25T11:52:56.004Z,98900.03
2022-08-25T11:56:04.607Z,98895.56
2022-08-25T11:59:09.720Z,98900.44
2022-08-25T12:02:39.170Z,98898.03
2022-08-25T12:06:14.947Z,98903.59
2022-08-25T12:09:22.182Z,98901.78
2022-08-25T12:12:37.930Z,98897.94
2022-08-25T12:16:02.414Z,98895.75
2022-08-25T12:19:39.724Z,98892.66
2022-08-25T12:22:58.164Z,98882.53
2022-08-25T12:26:06.329Z,98883.75
2022-08-25T12:29:18.084Z,98883.75
2022-08-25T12:32:50.194Z,98886.13
2022-08-25T12:35:58.518Z,98878.47
2022-08-25T12:39:24.614Z,98879.56
2022-08-25T12:42:36.049Z,98876.38
2022-08-25T12:45:44.434Z,98872.09
2022-08-25T12:48:57.704Z,98875.28
2022-08-25T12:52:06.255Z,98871.88
2022-08-25T12:55:13.371Z,98866.81
2022-08-25T12:58:18.008Z,98865.41
2022-08-25T13:01:35.578Z,98864.63
2022-08-25T13:05:02.482Z,98868.13
2022-08-25T13:08:41.176Z,98867.72
2022-08-25T13:11:59.932Z,98862.22
2022-08-25T13:15:04.901Z,98861.47
2022-08-25T13:18:16.152Z,98852.81
2022-08-25T13:21:32.562Z,98861.91
2022-08-25T13:24:43.747Z,98867.41
2022-08-25T13:27:56.016Z,98859.69
2022-08-25T13:31:02.262Z,98874.19
2022-08-25T13:34:08.590Z,98879.03
2022-08-25T13:37:33.348Z,98883.97
2022-08-25T13:40:37.261Z,98880.38
2022-08-25T13:43:42.595Z,98875.88
2022-08-25T13:46:47.334Z,98873.34
2022-08-25T13:49:50.602Z,98865.94
2022-08-25T13:52:58.082Z,98872.19
2022-08-25T13:56:04.506Z,98871.88
2022-08-25T13:59:21.410Z,98869.69
2022-08-25T14:02:44.329Z,98860.50
2022-08-25T14:05:47.794Z,98868.28
2022-08-25T14:09:07.779Z,98863.81
2022-08-25T14:15:38.826Z,98863.19
2022-08-25T14:18:48.568Z,98863.47
2022-08-25T14:21:56.799Z,98856.94
2022-08-25T14:25:00.357Z,98852.69
2022-08-25T14:28:07.540Z,98847.91
2022-08-25T14:31:16.158Z,98844.97
2022-08-25T14:34:25.394Z,98855.47
2022-08-25T14:37:32.662Z,98841.88
2022-08-25T14:40:36.265Z,98853.44
2022-08-25T14:43:39.642Z,98855.72
2022-08-25T14:46:47.345Z,98853.91
2022-08-25T14:49:51.089Z,98855.13
2022-08-25T14:52:54.424Z,98852.53
2022-08-25T14:56:08.383Z,98852.69
2022-08-25T14:59:11.949Z,98852.97
2022-08-25T15:02:20.270Z,98848.63
2022-08-25T15:05:28.491Z,98856.97
2022-08-25T15:08:49.491Z,98856.09
2022-08-25T15:11:55.519Z,98854.34
2022-08-25T15:14:59.063Z,98853.84
2022-08-25T15:18:04.003Z,98861.94
2022-08-25T15:21:08.650Z,98855.97
2022-08-25T15:24:17.429Z,98859.03
2022-08-25T15:27:22.324Z,98863.09
2022-08-25T15:30:30.969Z,98867.41
2022-08-25T15:33:36.031Z,98863.31
2022-08-25T15:36:39.940Z,98864.81
2022-08-25T15:39:47.233Z,98862.50
2022-08-25T15:42:50.702Z,98865.53
2022-08-25T15:45:54.004Z,98861.13
2022-08-25T15:48:59.772Z,98862.13
2022-08-25T15:52:03.556Z,98860.00
2022-08-25T15:55:08.495Z,98859.53
2022-08-25T15:58:11.890Z,98871.72
2022-08-25T16:01:16.600Z,98870.50
2022-08-25T16:04:26.411Z,98871.13
2022-08-25T16:07:29.984Z,98874.09
2022-08-25T16:10:36.305Z,98878.41
2022-08-25T16:13:39.597Z,98881.41
2022-08-25T16:16:45.500Z,98872.78
2022-08-25T16:19:50.417Z,98867.84
2022-08-25T16:22:53.892Z,98870.16
2022-08-25T16:25:57.525Z,98866.63
2022-08-25T16:29:01.681Z,98872.59
2022-08-25T16:32:10.730Z,98879.16
2022-08-25T16:35:16.418Z,98876.56
2022-08-25T16:38:19.839Z,98874.38
2022-08-25T16:41:25.227Z,98876.69
2022-08-25T16:44:28.662Z,98873.69
2022-08-25T16:47:34.557Z,98896.44
2022-08-25T16:50:40.422Z,98895.75
2022-08-25T16:54:01.375Z,98916.69
2022-08-25T16:57:04.854Z,98917.84
2022-08-25T17:00:12.419Z,98914.44
2022-08-25T17:03:15.771Z,98906.09
2022-08-25T17:06:21.469Z,98911.38
2022-08-25T17:09:24.856Z,98911.16
2022-08-25T17:12:29.050Z,98916.75
2022-08-25T17:15:33.018Z,98911.59
2022-08-25T17:18:36.719Z,98907.59
2022-08-25T17:21:45.335Z,98902.19
2022-08-25T17:24:59.347Z,98907.72
2022-08-25T17:28:05.961Z,98913.25
2022-08-25T17:31:09.914Z,98916.44
2022-08-25T17:34:16.517Z,98912.69
2022-08-25T17:37:21.528Z,98903.63
2022-08-25T17:40:26.515Z,98910.50
2022-08-25T17:43:31.711Z,98915.53
2022-08-25T17:46:35.170Z,98912.94
2022-08-25T17:49:38.793Z,98905.84
2022-08-25T17:52:44.000Z,98902.75
2022-08-25T17:55:48.025Z,98903.25
2022-08-25T17:58:57.055Z,98911.63
2022-08-25T18:02:02.216Z,98909.69
2022-08-25T18:05:07.227Z,98907.63
2022-08-25T18:08:12.383Z,98905.75
2022-08-25T18:11:15.985Z,98905.03
2022-08-25T18:14:25.238Z,98901.78
2022-08-25T18:17:29.171Z,98895.63
2022-08-25T18:20:32.593Z,98901.69
2022-08-25T18:23:37.338Z,98911.31
2022-08-25T18:26:41.313Z,98905.69
2022-08-25T18:29:44.855Z,98906.47
2022-08-25T18:32:49.309Z,98903.59
2022-08-25T18:35:52.861Z,98916.72
2022-08-25T18:39:14.963Z,98915.25
2022-08-25T18:42:20.191Z,98913.69
2022-08-25T18:45:26.679Z,98915.97
2022-08-25T18:48:30.161Z,98928.78
2022-08-25T18:51:33.523Z,98929.63
2022-08-25T18:54:39.988Z,98938.50
2022-08-25T18:57:44.420Z,98932.34
2022-08-25T19:00:50.493Z,98919.25
2022-08-25T19:03:53.929Z,98918.69
2022-08-25T19:06:57.314Z,98926.19
2022-08-25T19:10:02.030Z,98927.03
2022-08-25T19:13:07.885Z,98932.09
2022-08-25T19:16:13.920Z,98933.72
2022-08-25T19:19:21.702Z,98943.09
2022-08-25T19:22:40.681Z,98936.38
2022-08-25T19:25:46.231Z,98936.38
2022-08-25T19:28:53.430Z,98936.38
2022-08-25T19:31:57.500Z,98936.91
2022-08-25T19:35:05.537Z,98948.38
2022-08-25T19:38:34.018Z,98939.88
2022-08-25T19:41:38.399Z,98941.16
2022-08-25T19:44:42.213Z,98946.31
2022-08-25T19:47:45.782Z,98953.25
2022-08-25T19:50:49.198Z,98941.22
2022-08-25T19:54:01.531Z,98961.53
2022-08-25T19:57:10.631Z,98947.50
2022-08-25T20:00:20.308Z,98953.16
2022-08-25T20:03:23.785Z,98961.06
2022-08-25T20:06:27.872Z,98959.94
2022-08-25T20:09:39.231Z,98956.44
2022-08-25T20:12:45.886Z,98951.31
2022-08-25T20:15:49.353Z,98959.63
2022-08-25T20:18:54.861Z,98948.13
2022-08-25T20:21:59.075Z,98949.78
2022-08-25T20:25:13.499Z,98953.28
2022-08-25T20:28:19.216Z,98955.63
2022-08-25T20:31:22.780Z,98959.13
2022-08-25T20:34:28.651Z,98965.31
2022-08-25T20:37:33.924Z,98958.06
2022-08-25T20:40:39.759Z,98960.94
2022-08-25T20:43:45.476Z,98956.97
2022-08-25T20:46:49.841Z,98961.22
2022-08-25T20:49:55.045Z,98948.06
2022-08-25T20:52:58.874Z,98950.78
2022-08-25T20:56:08.768Z,98950.22
2022-08-25T20:59:14.401Z,98946.50
2022-08-25T21:02:18.741Z,98943.00
2022-08-25T21:05:22.503Z,98933.88
2022-08-25T21:08:25.892Z,98929.91
2022-08-25T21:11:29.195Z,98939.50
2022-08-25T21:14:35.032Z,98930.72
2022-08-25T21:17:40.562Z,98929.31
2022-08-25T21:20:44.252Z,98927.50
2022-08-25T21:23:49.394Z,98925.31
2022-08-25T21:26:55.983Z,98933.00
2022-08-25T21:30:01.006Z,98923.69
2022-08-25T21:33:04.746Z,98925.59
2022-08-25T21:36:10.957Z,98920.78
2022-08-25T21:39:15.584Z,98920.47
2022-08-25T21:42:19.917Z,98919.69
2022-08-25T21:45:24.675Z,98919.97
2022-08-25T21:48:28.023Z,98912.75
2022-08-25T21:51:34.959Z,98910.91
2022-08-25T21:54:43.786Z,98912.75
2022-08-25T21:57:47.241Z,98908.38
2022-08-25T22:00:52.133Z,98906.25
2022-08-25T22:03:56.822Z,98906.22
2022-08-25T22:07:00.426Z,98900.25
2022-08-25T22:10:03.947Z,98901.16
2022-08-25T22:13:08.507Z,98898.19
2022-08-25T22:16:13.864Z,98897.91
2022-08-25T22:19:17.500Z,98893.53
2022-08-25T22:22:21.012Z,98894.59
2022-08-25T22:25:25.046Z,98889.25
2022-08-25T22:28:29.096Z,98887.03
2022-08-25T22:31:33.950Z,98890.13
2022-08-25T22:34:40.171Z,98889.28
2022-08-25T22:37:44.074Z,98889.59
2022-08-25T22:40:47.505Z,98881.81
2022-08-25T22:43:53.002Z,98884.72
2022-08-25T22:46:58.058Z,98885.00
2022-08-25T22:50:01.812Z,98884.53
2022-08-25T22:53:05.467Z,98877.84
2022-08-25T22:56:10.764Z,98872.44
2022-08-25T22:59:15.823Z,98877.25
2022-08-25T23:02:20.543Z,98878.94
2022-08-25T23:05:23.966Z,98868.59
2022-08-25T23:08:39.182Z,98861.19
2022-08-25T23:11:44.524Z,98856.25
2022-08-25T23:14:49.890Z,98851.38
2022-08-25T23:17:54.968Z,98857.19
2022-08-25T23:21:15.718Z,98852.28
2022-08-25T23:24:29.702Z,98862.59
2022-08-25T23:27:33.601Z,98874.41
2022-08-25T23:30:40.614Z,98858.09
2022-08-25T23:33:50.018Z,98862.59
2022-08-25T23:36:53.896Z,98857.41
2022-08-25T23:39:57.547Z,98852.13
2022-08-25T23:43:01.580Z,98852.06
2022-08-25T23:46:05.915Z,98856.63
2022-08-25T23:49:10.837Z,98860.13
2022-08-25T23:52:17.388Z,98860.66
2022-08-25T23:55:21.585Z,98856.38
2022-08-25T23:58:25.311Z,98875.75
